Time;durP1;ratioP1;P1;durP2;ratioP2;P2;SDS_P1;SDS_P2;PMS_P1;PMS_P2;Temp;Humidity;BMP_temperature;BMP_pressure;BME280_temperature;BME280_humidity;BME280_pressure;Samples;Min_cycle;Max_cycle;Signal;HPM_P1;HPM_P2
2022/05/02 00:00:46;;;;;;;;;;;;;;;15.35;43.21;102259.50;5003259;28;20551;-69
2022/05/02 00:03:12;;;;;;;;;;;;;;;15.41;42.79;102267.53;5005231;28;19914;-69
2022/05/02 00:05:39;;;;;;;;;;;;;;;15.20;43.62;102265.22;5004142;28;20378;-69
2022/05/02 00:08:04;;;;;;;;;;;;;;;15.19;43.71;102265.47;5002122;28;19921;-69
2022/05/02 00:10:30;;;;;;;;;;;;;;;15.31;43.62;102266.41;5003894;28;19929;-70
2022/05/02 00:12:56;;;;;;;;;;;;;;;15.21;43.66;102263.38;5003564;28;19921;-71
2022/05/02 00:15:21;;;;;;;;;;;;;;;15.34;43.10;102263.25;5002836;28;20308;-68
2022/05/02 00:18:02;;;;;;;;;;;;;;;15.14;43.57;102262.56;5003606;28;20395;-70
2022/05/02 00:20:27;;;;;;;;;;;;;;;15.56;42.84;102259.13;5011636;28;20334;-69
2022/05/02 00:22:53;;;;;;;;;;;;;;;15.29;43.28;102260.38;5010402;28;19953;-70
2022/05/02 00:25:18;;;;;;;;;;;;;;;14.88;44.60;102255.47;5007159;28;19971;-68
2022/05/02 00:27:43;;;;;;;;;;;;;;;15.03;43.84;102257.88;4995530;28;19954;-69
2022/05/02 00:30:10;;;;;;;;;;;;;;;15.25;43.66;102248.34;5002241;28;20012;-71
2022/05/02 00:32:35;;;;;;;;;;;;;;;15.19;43.49;102243.81;5001558;28;20032;-69
2022/05/02 00:35:02;;;;;;;;;;;;;;;15.04;43.56;102245.97;5007137;28;19944;-70
2022/05/02 00:37:29;;;;;;;;;;;;;;;15.00;44.15;102248.31;5004611;28;19937;-70
2022/05/02 00:39:54;;;;;;;;;;;;;;;14.75;44.65;102242.88;5003352;28;19945;-69
2022/05/02 00:42:20;;;;;;;;;;;;;;;14.70;44.66;102239.97;5003507;28;20400;-68
2022/05/02 00:44:45;;;;;;;;;;;;;;;14.93;44.32;102236.72;5004356;28;20004;-69
2022/05/02 00:47:11;;;;;;;;;;;;;;;14.96;44.42;102239.81;5003829;28;19924;-70
2022/05/02 00:49:39;;;;;;;;;;;;;;;14.71;45.20;102233.53;5010313;28;20393;-69
2022/05/02 00:52:05;;;;;;;;;;;;;;;14.89;44.27;102232.78;5004621;28;19929;-71
2022/05/02 00:54:30;;;;;;;;;;;;;;;14.88;44.58;102231.13;5004271;28;19914;-70
2022/05/02 00:56:55;;;;;;;;;;;;;;;14.71;44.83;102228.13;5003683;28;19914;-69
2022/05/02 00:59:21;;;;;;;;;;;;;;;14.86;44.29;102233.22;5002676;28;20069;-68
2022/05/02 01:01:47;;;;;;;;;;;;;;;14.61;45.62;102229.66;5004045;28;19921;-69
2022/05/02 01:04:12;;;;;;;;;;;;;;;14.86;44.55;102230.50;5002488;28;20013;-68
2022/05/02 01:09:21;;;;;;;;;;;;;;;14.75;44.61;102228.50;5004487;28;20009;-69
2022/05/02 01:11:46;;;;;;;;;;;;;;;14.76;44.21;102233.69;5003872;28;20004;-70
2022/05/02 01:14:12;;;;;;;;;;;;;;;14.63;45.10;102231.09;5009359;28;20526;-68
2022/05/02 01:16:37;;;;;;;;;;;;;;;14.58;45.28;102230.94;5004307;28;19922;-69
2022/05/02 01:19:02;;;;;;;;;;;;;;;14.77;44.67;102221.00;5001976;28;19917;-68
2022/05/02 01:21:29;;;;;;;;;;;;;;;14.69;44.48;102230.22;5001859;28;19936;-68
2022/05/02 01:23:57;;;;;;;;;;;;;;;14.58;45.10;102233.63;4997398;28;19913;-69
2022/05/02 01:26:22;;;;;;;;;;;;;;;14.52;45.32;102229.09;4992085;28;20024;-69
2022/05/02 01:28:49;;;;;;;;;;;;;;;14.36;45.83;102224.19;4993151;28;20009;-68
2022/05/02 01:31:15;;;;;;;;;;;;;;;14.41;44.84;102226.22;4993166;28;19929;-69
2022/05/02 01:33:41;;;;;;;;;;;;;;;14.43;45.08;102224.97;4997715;28;20008;-68
2022/05/02 01:36:06;;;;;;;;;;;;;;;14.28;44.90;102224.44;5032773;28;19988;-68
2022/05/02 01:38:32;;;;;;;;;;;;;;;14.27;45.07;102227.31;5032366;28;20335;-69
2022/05/02 01:40:57;;;;;;;;;;;;;;;14.44;44.80;102221.22;5032076;28;19925;-69
2022/05/02 01:43:23;;;;;;;;;;;;;;;14.19;45.20;102224.88;5048194;28;19921;-68
2022/05/02 01:45:48;;;;;;;;;;;;;;;14.25;45.01;102224.00;5020122;28;19925;-69
2022/05/02 01:48:13;;;;;;;;;;;;;;;14.28;45.20;102223.59;5012637;28;19925;-70
2022/05/02 01:50:38;;;;;;;;;;;;;;;14.26;45.20;102223.78;5012493;28;19922;-69
2022/05/02 01:53:04;;;;;;;;;;;;;;;14.18;44.93;102220.50;5012496;28;19928;-70
2022/05/02 01:55:29;;;;;;;;;;;;;;;14.01;45.34;102222.88;5012564;28;19968;-68
2022/05/02 01:57:54;;;;;;;;;;;;;;;14.23;45.05;102216.09;5012466;28;20273;-70
2022/05/02 02:00:19;;;;;;;;;;;;;;;14.16;45.26;102220.72;5029004;28;19917;-70
2022/05/02 02:02:45;;;;;;;;;;;;;;;14.02;45.77;102227.22;5031930;28;19925;-69
2022/05/02 02:07:54;;;;;;;;;;;;;;;14.06;45.34;102214.94;5032260;28;19932;-71
2022/05/02 02:10:19;;;;;;;;;;;;;;;14.03;45.52;102212.66;5032022;28;19921;-68
2022/05/02 02:12:44;;;;;;;;;;;;;;;13.82;45.93;102213.78;5031014;28;20252;-69
2022/05/02 02:15:14;;;;;;;;;;;;;;;13.81;45.94;102216.69;5032373;28;20006;-68
2022/05/02 02:17:39;;;;;;;;;;;;;;;13.77;45.77;102210.88;5024246;28;20365;-67
2022/05/02 02:20:05;;;;;;;;;;;;;;;13.67;46.11;102215.91;4992258;28;19922;-68
2022/05/02 02:22:30;;;;;;;;;;;;;;;13.66;45.97;102216.94;4990731;28;19922;-67
2022/05/02 02:24:55;;;;;;;;;;;;;;;13.56;46.33;102208.44;4992561;28;20435;-68
2022/05/02 02:27:20;;;;;;;;;;;;;;;13.60;46.39;102206.97;4993129;28;19914;-69
2022/05/02 02:29:46;;;;;;;;;;;;;;;13.61;46.47;102214.03;4992515;28;20285;-68
2022/05/02 02:32:11;;;;;;;;;;;;;;;13.63;46.18;102213.84;5011068;28;19971;-68
2022/05/02 02:34:36;;;;;;;;;;;;;;;13.60;46.73;102211.56;5021852;28;19921;-68
2022/05/02 02:37:01;;;;;;;;;;;;;;;13.52;46.76;102212.59;5031821;28;19925;-68
2022/05/02 02:39:27;;;;;;;;;;;;;;;13.54;46.65;102207.00;5031756;28;19913;-68
2022/05/02 02:41:52;;;;;;;;;;;;;;;13.53;46.87;102206.16;5032315;28;19917;-69
2022/05/02 02:44:17;;;;;;;;;;;;;;;13.62;46.57;102204.88;5031794;28;19928;-70
2022/05/02 02:46:42;;;;;;;;;;;;;;;13.45;46.40;102206.41;5013809;28;19921;-69
2022/05/02 02:49:08;;;;;;;;;;;;;;;13.48;46.30;102195.19;5011855;28;19925;-69
2022/05/02 02:51:33;;;;;;;;;;;;;;;13.40;46.47;102191.88;5012121;28;20008;-68
2022/05/02 02:53:58;;;;;;;;;;;;;;;13.42;46.36;102204.13;5013983;28;20322;-69
2022/05/02 02:56:23;;;;;;;;;;;;;;;13.40;46.22;102192.72;5015750;28;20004;-71
2022/05/02 02:58:48;;;;;;;;;;;;;;;13.29;46.54;102196.03;5015389;28;20271;-69
2022/05/02 03:01:14;;;;;;;;;;;;;;;13.31;46.89;102187.72;5011022;28;19996;-68
2022/05/02 03:03:39;;;;;;;;;;;;;;;13.23;46.96;102189.59;4997990;28;19925;-69
2022/05/02 03:06:05;;;;;;;;;;;;;;;13.28;46.94;102190.84;5015880;28;19918;-69
2022/05/02 03:08:36;;;;;;;;;;;;;;;13.20;46.90;102183.81;5010833;28;20026;-69
2022/05/02 03:11:01;;;;;;;;;;;;;;;13.20;46.92;102189.19;5009187;28;19917;-70
2022/05/02 03:13:27;;;;;;;;;;;;;;;13.17;47.02;102184.19;5015291;28;19991;-68
2022/05/02 03:15:52;;;;;;;;;;;;;;;13.04;46.88;102181.53;5014046;28;19944;-68
2022/05/02 03:18:18;;;;;;;;;;;;;;;13.08;47.28;102180.91;5015243;28;20016;-68
2022/05/02 03:20:43;;;;;;;;;;;;;;;13.08;47.02;102186.31;5015108;28;19996;-67
2022/05/02 03:23:08;;;;;;;;;;;;;;;13.10;46.96;102180.69;5015030;28;19921;-68
2022/05/02 03:25:33;;;;;;;;;;;;;;;12.99;46.69;102184.00;5015077;28;19980;-68
2022/05/02 03:27:58;;;;;;;;;;;;;;;13.09;47.00;102179.84;5015077;28;19922;-70
2022/05/02 03:30:24;;;;;;;;;;;;;;;13.10;47.47;102178.84;5019422;28;19919;-69
2022/05/02 03:32:49;;;;;;;;;;;;;;;13.03;46.26;102179.84;5035011;28;20012;-69
2022/05/02 03:35:14;;;;;;;;;;;;;;;13.07;47.16;102183.81;5034731;28;19995;-69
2022/05/02 03:37:39;;;;;;;;;;;;;;;13.04;46.60;102185.06;5034694;28;19918;-68
2022/05/02 03:40:06;;;;;;;;;;;;;;;13.02;46.76;102180.88;5034509;28;19928;-68
2022/05/02 03:42:32;;;;;;;;;;;;;;;12.99;47.00;102184.81;5034643;28;19920;-68
2022/05/02 03:44:57;;;;;;;;;;;;;;;13.01;47.28;102182.72;5030986;28;19993;-68
2022/05/02 03:47:22;;;;;;;;;;;;;;;12.97;47.16;102181.47;4994575;28;19922;-69
2022/05/02 03:49:48;;;;;;;;;;;;;;;12.98;46.72;102177.75;4995060;28;20412;-68
2022/05/02 03:52:13;;;;;;;;;;;;;;;13.02;47.24;102179.00;4995096;28;20464;-69
2022/05/02 03:54:38;;;;;;;;;;;;;;;12.90;46.74;102180.66;4993626;28;19918;-69
2022/05/02 03:57:03;;;;;;;;;;;;;;;12.96;46.97;102179.00;4995265;28;20362;-68
2022/05/02 03:59:29;;;;;;;;;;;;;;;12.81;47.72;102184.63;5003879;28;20358;-69
2022/05/02 04:01:54;;;;;;;;;;;;;;;12.87;46.91;102182.97;5005373;28;19960;-68
2022/05/02 04:04:19;;;;;;;;;;;;;;;12.91;46.59;102192.31;4994077;28;20485;-68
2022/05/02 04:06:46;;;;;;;;;;;;;;;12.94;47.49;102179.22;4993037;28;19949;-68
2022/05/02 04:09:11;;;;;;;;;;;;;;;12.83;47.13;102176.31;4994892;28;19918;-69
2022/05/02 04:11:37;;;;;;;;;;;;;;;12.92;47.43;102178.59;4998520;28;19924;-68
2022/05/02 04:14:03;;;;;;;;;;;;;;;13.00;48.04;102180.25;5013899;28;19963;-69
2022/05/02 04:16:28;;;;;;;;;;;;;;;12.88;46.94;102182.75;5026620;28;19921;-68
2022/05/02 04:18:54;;;;;;;;;;;;;;;12.87;46.87;102185.66;5033521;28;19928;-70
2022/05/02 04:21:19;;;;;;;;;;;;;;;13.03;47.37;102185.25;5008081;28;20419;-68
2022/05/02 04:23:44;;;;;;;;;;;;;;;12.82;47.80;102183.56;4994415;28;20296;-69
2022/05/02 04:26:09;;;;;;;;;;;;;;;12.88;47.10;102179.22;4994123;28;19926;-69
2022/05/02 04:28:34;;;;;;;;;;;;;;;13.01;47.19;102185.44;5009373;28;19957;-70
2022/05/02 04:31:00;;;;;;;;;;;;;;;12.87;47.52;102180.25;4993896;28;19918;-69
2022/05/02 04:33:25;;;;;;;;;;;;;;;12.82;47.72;102186.28;4993290;28;19990;-70
2022/05/02 04:35:50;;;;;;;;;;;;;;;12.71;48.27;102178.81;4993880;28;19913;-69
2022/05/02 04:38:15;;;;;;;;;;;;;;;12.88;48.62;102184.59;4993313;28;19922;-70
2022/05/02 04:40:41;;;;;;;;;;;;;;;12.78;47.88;102182.31;4993069;28;19928;-68
2022/05/02 04:43:06;;;;;;;;;;;;;;;12.93;48.27;102185.63;4992960;28;19921;-67
2022/05/02 04:45:31;;;;;;;;;;;;;;;12.94;48.01;102183.78;5000737;28;19975;-68
2022/05/02 04:47:57;;;;;;;;;;;;;;;12.96;47.94;102179.00;5012708;28;19925;-69
2022/05/02 04:50:22;;;;;;;;;;;;;;;12.86;48.83;102184.81;5012439;28;20340;-69
2022/05/02 04:52:48;;;;;;;;;;;;;;;13.05;48.15;102184.00;5012742;28;19921;-69
2022/05/02 04:55:13;;;;;;;;;;;;;;;12.84;48.85;102188.75;5012715;28;19921;-67
2022/05/02 04:57:38;;;;;;;;;;;;;;;12.89;48.77;102189.78;5012528;28;19917;-68
2022/05/02 05:00:04;;;;;;;;;;;;;;;13.14;48.21;102182.78;5027679;28;19917;-67
2022/05/02 05:02:29;;;;;;;;;;;;;;;13.23;48.85;102186.91;5033074;28;19917;-68
2022/05/02 05:04:54;;;;;;;;;;;;;;;13.29;48.22;102190.63;5032956;28;19925;-69
2022/05/02 05:07:19;;;;;;;;;;;;;;;13.35;48.13;102191.66;5030459;28;19924;-69
2022/05/02 05:09:45;;;;;;;;;;;;;;;13.36;48.39;102194.16;5013058;28;19929;-68
2022/05/02 05:12:10;;;;;;;;;;;;;;;13.41;47.75;102188.94;5013533;28;19921;-67
2022/05/02 05:17:41;;;;;;;;;;;;;;;13.62;47.83;102193.28;5012085;28;19980;-68
2022/05/02 05:20:15;;;;;;;;;;;;;;;13.68;48.08;102192.44;5012746;28;19925;-68
2022/05/02 05:22:41;;;;;;;;;;;;;;;13.73;48.10;102192.59;5012866;28;19949;-67
2022/05/02 05:25:13;;;;;;;;;;;;;;;13.83;48.54;102193.00;5012687;28;19968;-68
2022/05/02 05:27:38;;;;;;;;;;;;;;;14.09;47.21;102182.88;5012715;28;19923;-68
2022/05/02 05:30:04;;;;;;;;;;;;;;;14.09;47.61;102188.28;5010110;28;19921;-68
2022/05/02 05:32:31;;;;;;;;;;;;;;;14.22;47.48;102184.69;4992936;28;19925;-67
2022/05/02 05:35:04;;;;;;;;;;;;;;;14.14;46.83;102184.94;4992869;28;20377;-67
2022/05/02 05:37:41;;;;;;;;;;;;;;;14.47;46.02;102191.03;4992921;28;19921;-70
2022/05/02 05:40:19;;;;;;;;;;;;;;;14.36;46.25;102186.31;4993003;28;20357;-70
2022/05/02 05:42:50;;;;;;;;;;;;;;;14.35;46.92;102191.97;4992968;28;20343;-68
2022/05/02 05:45:23;;;;;;;;;;;;;;;14.44;47.21;102190.63;4998767;28;19931;-67
2022/05/02 05:47:49;;;;;;;;;;;;;;;14.59;46.88;102194.69;5012147;28;19926;-68
2022/05/02 05:50:22;;;;;;;;;;;;;;;14.66;46.57;102197.38;5010989;28;20012;-68
2022/05/02 05:53:06;;;;;;;;;;;;;;;14.76;46.08;102198.53;5012318;28;19945;-68
2022/05/02 05:55:31;;;;;;;;;;;;;;;14.06;48.62;102196.84;5012304;28;19922;-68
2022/05/02 05:58:11;;;;;;;;;;;;;;;14.81;46.38;102196.00;5012166;28;20376;-66
2022/05/02 06:00:42;;;;;;;;;;;;;;;15.02;46.03;102193.97;5011715;28;19924;-67
2022/05/02 06:03:10;;;;;;;;;;;;;;;15.15;45.43;102188.44;5012421;28;19910;-69
2022/05/02 06:05:41;;;;;;;;;;;;;;;15.13;45.98;102188.66;4994257;28;19930;-69
2022/05/02 06:08:10;;;;;;;;;;;;;;;15.22;44.78;102191.88;4992504;28;19917;-70
2022/05/02 06:10:36;;;;;;;;;;;;;;;15.32;44.67;102186.78;4992416;28;20444;-69
2022/05/02 06:13:02;;;;;;;;;;;;;;;15.09;45.87;102195.56;4992365;28;20017;-69
2022/05/02 06:18:29;;;;;;;;;;;;;;;15.52;45.16;102198.28;5032239;28;20412;-69
2022/05/02 06:20:57;;;;;;;;;;;;;;;15.65;44.59;102200.84;5031905;28;19928;-68
2022/05/02 06:23:24;;;;;;;;;;;;;;;15.66;44.14;102203.31;5031710;28;20392;-68
2022/05/02 06:25:52;;;;;;;;;;;;;;;15.71;44.99;102198.06;5031572;28;20444;-68
2022/05/02 06:28:19;;;;;;;;;;;;;;;15.86;43.73;102199.59;5033992;28;19917;-68
2022/05/02 06:30:48;;;;;;;;;;;;;;;16.04;44.29;102192.25;5035409;28;20011;-70
2022/05/02 06:33:14;;;;;;;;;;;;;;;16.12;43.54;102193.81;5035842;28;19987;-67
2022/05/02 06:35:59;;;;;;;;;;;;;;;16.21;43.39;102195.16;5034907;28;19921;-68
2022/05/02 06:38:33;;;;;;;;;;;;;;;16.10;43.68;102196.75;4992675;28;19922;-68
2022/05/02 06:41:03;;;;;;;;;;;;;;;16.31;43.23;102181.88;4992734;28;20333;-68
2022/05/02 06:43:33;;;;;;;;;;;;;;;16.40;42.88;102192.19;4992584;28;20358;-67
2022/05/02 06:46:01;;;;;;;;;;;;;;;16.46;43.18;102187.72;4971826;28;20034;-69
2022/05/02 06:48:29;;;;;;;;;;;;;;;16.63;42.70;102180.59;4953530;29;19926;-69
2022/05/02 06:50:55;;;;;;;;;;;;;;;16.82;42.33;102190.31;4953852;29;20294;-67
2022/05/02 06:53:44;;;;;;;;;;;;;;;16.82;41.89;102192.22;4953700;29;19967;-68
2022/05/02 06:56:18;;;;;;;;;;;;;;;16.84;42.08;102188.22;4953690;29;19962;-68
2022/05/02 06:58:53;;;;;;;;;;;;;;;16.59;42.45;102187.53;4953653;28;19922;-69
2022/05/02 07:01:18;;;;;;;;;;;;;;;16.95;42.31;102181.94;4954479;28;19930;-69
2022/05/02 07:03:52;;;;;;;;;;;;;;;16.98;41.97;102183.38;4953412;28;19923;-68
2022/05/02 07:06:21;;;;;;;;;;;;;;;16.97;41.74;102185.25;4953925;29;20378;-68
2022/05/02 07:08:52;;;;;;;;;;;;;;;17.51;40.50;102184.13;4953394;28;19923;-69
2022/05/02 07:11:19;;;;;;;;;;;;;;;17.69;40.15;102180.44;4953469;28;20397;-68
2022/05/02 07:14:16;;;;;;;;;;;;;;;17.84;39.72;102183.47;4953429;28;19929;-68
2022/05/02 07:16:44;;;;;;;;;;;;;;;17.48;40.31;102181.81;4991572;28;19960;-67
2022/05/02 07:19:28;;;;;;;;;;;;;;;17.88;38.93;102184.63;5011480;28;19945;-69
2022/05/02 07:21:56;;;;;;;;;;;;;;;18.00;38.90;102175.38;5011426;28;20405;-69
2022/05/02 07:24:30;;;;;;;;;;;;;;;18.29;38.49;102177.03;5011973;28;19999;-69
2022/05/02 07:27:01;;;;;;;;;;;;;;;18.26;38.32;102172.06;5011566;28;19921;-69
2022/05/02 07:29:26;;;;;;;;;;;;;;;18.39;38.32;102176.38;4995179;28;20353;-68
2022/05/02 07:31:53;;;;;;;;;;;;;;;18.61;37.56;102176.53;4995153;28;19996;-67
2022/05/02 07:34:18;;;;;;;;;;;;;;;18.24;38.08;102174.19;4975450;28;20432;-70
2022/05/02 07:36:48;;;;;;;;;;;;;;;19.01;36.56;102177.19;4991851;28;19921;-68
2022/05/02 07:39:15;;;;;;;;;;;;;;;19.02;36.08;102170.69;4991382;28;19914;-69
2022/05/02 07:41:42;;;;;;;;;;;;;;;18.89;35.96;102173.72;4991540;28;19926;-70
2022/05/02 07:44:09;;;;;;;;;;;;;;;18.94;36.09;102176.56;4991533;28;19925;-69
2022/05/02 07:46:38;;;;;;;;;;;;;;;19.38;34.79;102183.00;4991161;28;19926;-68
2022/05/02 07:49:05;;;;;;;;;;;;;;;19.36;35.27;102180.50;4991050;28;19926;-68
2022/05/02 07:51:31;;;;;;;;;;;;;;;18.51;36.38;102182.63;4995151;28;19951;-68
2022/05/02 07:53:56;;;;;;;;;;;;;;;19.13;35.12;102177.94;5014119;28;19913;-67
2022/05/02 07:56:23;;;;;;;;;;;;;;;19.81;33.91;102183.03;5012206;28;19976;-68
2022/05/02 07:58:50;;;;;;;;;;;;;;;19.89;33.95;102179.88;5013704;28;19979;-69
2022/05/02 08:01:19;;;;;;;;;;;;;;;19.93;33.89;102178.28;5013526;28;19922;-69
2022/05/02 08:03:44;;;;;;;;;;;;;;;19.49;34.05;102187.50;5013290;28;19928;-67
2022/05/02 08:06:29;;;;;;;;;;;;;;;18.87;35.27;102186.81;5013865;28;19917;-68
2022/05/02 08:08:58;;;;;;;;;;;;;;;19.70;33.45;102181.25;5013665;28;19921;-68
2022/05/02 08:11:29;;;;;;;;;;;;;;;20.23;32.53;102183.28;5013402;28;19968;-69
2022/05/02 08:14:03;;;;;;;;;;;;;;;19.41;33.79;102182.47;5006262;28;20008;-69
2022/05/02 08:16:31;;;;;;;;;;;;;;;19.53;33.85;102181.31;5005892;28;19930;-68
2022/05/02 08:19:00;;;;;;;;;;;;;;;20.12;32.65;102179.59;5000618;28;20363;-69
2022/05/02 08:21:33;;;;;;;;;;;;;;;20.00;33.04;102178.91;4998280;28;19981;-71
2022/05/02 08:29:59;;;;;;;;;;;;;;;20.94;31.04;102182.88;5006746;28;19928;-67
2022/05/02 08:32:39;;;;;;;;;;;;;;;20.55;30.94;102185.00;4998439;28;19945;-66
2022/05/02 08:35:24;;;;;;;;;;;;;;;20.77;30.83;102182.19;5003344;28;19921;-67
2022/05/02 08:37:52;;;;;;;;;;;;;;;21.11;30.05;102182.75;5002345;28;19960;-67
2022/05/02 08:40:24;;;;;;;;;;;;;;;21.05;29.14;102186.53;5002402;28;19928;-68
2022/05/02 08:43:08;;;;;;;;;;;;;;;20.93;29.57;102179.31;5004532;28;19928;-68
2022/05/02 08:45:36;;;;;;;;;;;;;;;21.31;28.68;102178.25;5001401;28;20067;-68
2022/05/02 08:48:34;;;;;;;;;;;;;;;21.44;28.97;102174.22;5011419;28;20020;-69
2022/05/02 08:51:13;;;;;;;;;;;;;;;19.88;30.83;102173.59;5010068;28;19922;-68
2022/05/02 08:53:58;;;;;;;;;;;;;;;20.51;29.67;102169.38;5008205;28;19921;-71
2022/05/02 08:56:42;;;;;;;;;;;;;;;20.90;28.65;102168.06;5009888;28;19922;-70
2022/05/02 08:59:10;;;;;;;;;;;;;;;20.95;29.00;102171.66;5012427;28;19921;-68
2022/05/02 09:01:46;;;;;;;;;;;;;;;21.41;28.14;102174.75;5006002;28;19922;-67
2022/05/02 09:04:30;;;;;;;;;;;;;;;21.07;28.63;102165.25;4997754;28;19953;-69
2022/05/02 09:07:07;;;;;;;;;;;;;;;21.86;26.99;102169.53;4992748;28;20381;-69
2022/05/02 09:09:53;;;;;;;;;;;;;;;22.18;26.90;102155.66;4998115;28;19921;-69
2022/05/02 09:12:37;;;;;;;;;;;;;;;21.23;28.88;102165.06;4980170;28;19922;-69
2022/05/02 09:15:20;;;;;;;;;;;;;;;21.04;30.07;102161.09;4989809;28;19930;-69
2022/05/02 09:17:46;;;;;;;;;;;;;;;21.59;28.97;102166.94;4981256;28;20041;-70
2022/05/02 09:20:29;;;;;;;;;;;;;;;20.73;29.85;102164.66;4981674;28;19961;-69
2022/05/02 09:23:12;;;;;;;;;;;;;;;21.23;28.40;102153.31;4981564;28;20353;-70
2022/05/02 09:25:57;;;;;;;;;;;;;;;21.42;28.52;102160.00;4983970;28;19933;-70
2022/05/02 09:28:23;;;;;;;;;;;;;;;22.46;27.98;102161.50;4981005;28;19926;-69
2022/05/02 09:31:07;;;;;;;;;;;;;;;22.90;26.85;102159.03;4980498;28;20024;-67
2022/05/02 09:33:32;;;;;;;;;;;;;;;22.21;26.82;102161.41;4971470;28;19922;-68
2022/05/02 09:36:16;;;;;;;;;;;;;;;19.90;29.86;102156.94;4978636;28;19981;-70
2022/05/02 09:38:41;;;;;;;;;;;;;;;21.73;28.36;102156.31;4977720;28;19922;-70
2022/05/02 09:41:22;;;;;;;;;;;;;;;21.71;27.36;102153.84;4979151;28;19924;-67
2022/05/02 09:49:33;;;;;;;;;;;;;;;21.29;28.81;102153.06;4998279;28;19975;-69
2022/05/02 09:52:02;;;;;;;;;;;;;;;22.12;27.41;102145.78;5011735;28;20397;-69
2022/05/02 09:57:23;;;;;;;;;;;;;;;21.91;27.29;102139.44;5012305;28;19963;-69
2022/05/02 10:01:06;;;;;;;;;;;;;;;21.74;27.43;102144.25;5011706;28;20262;-66
2022/05/02 10:02:41;;;;;;;;;;;;;;;23.46;25.33;102135.94;5011053;28;20392;-67
2022/05/02 10:05:07;;;;;;;;;;;;;;;23.62;25.40;102127.66;5010074;28;19925;-69
2022/05/02 10:07:51;;;;;;;;;;;;;;;23.71;24.73;102126.78;5002695;28;19948;-68
2022/05/02 10:10:23;;;;;;;;;;;;;;;22.78;25.79;102133.81;4994642;28;20380;-69
2022/05/02 10:12:48;;;;;;;;;;;;;;;23.66;25.08;102123.22;5002982;28;20400;-66
2022/05/02 10:15:25;;;;;;;;;;;;;;;23.76;25.16;102121.28;5018445;28;19917;-67
2022/05/02 10:18:03;;;;;;;;;;;;;;;22.31;27.94;102128.56;5016743;28;19922;-69
2022/05/02 10:20:33;;;;;;;;;;;;;;;23.57;26.77;102131.22;5001103;28;20017;-68
2022/05/02 10:23:08;;;;;;;;;;;;;;;22.95;27.59;102133.56;4993988;28;20004;-70
2022/05/02 10:25:37;;;;;;;;;;;;;;;22.94;26.91;102138.19;4998544;28;19948;-68
2022/05/02 10:28:36;;;;;;;;;;;;;;;22.63;27.10;102129.19;5003033;28;19933;-67
2022/05/02 10:31:04;;;;;;;;;;;;;;;21.68;27.99;102131.66;5000256;28;19940;-68
2022/05/02 10:33:44;;;;;;;;;;;;;;;23.10;26.35;102120.63;4987652;28;20432;-68
2022/05/02 10:36:10;;;;;;;;;;;;;;;21.67;28.76;102127.28;4988996;28;20012;-68
2022/05/02 10:38:43;;;;;;;;;;;;;;;22.55;27.77;102121.47;4999346;28;20017;-68
2022/05/02 10:41:15;;;;;;;;;;;;;;;21.53;27.36;102120.66;4987757;28;20004;-67
2022/05/02 10:43:47;;;;;;;;;;;;;;;23.58;25.14;102107.34;4988063;28;20029;-71
2022/05/02 10:46:13;;;;;;;;;;;;;;;23.81;25.13;102103.94;4996205;28;19980;-67
2022/05/02 10:48:45;;;;;;;;;;;;;;;24.05;24.60;102104.94;4995520;28;19930;-68
2022/05/02 10:51:12;;;;;;;;;;;;;;;23.46;25.12;102103.00;4997123;28;20324;-67
2022/05/02 10:53:47;;;;;;;;;;;;;;;22.12;27.01;102101.97;4999590;28;19921;-67
2022/05/02 10:56:27;;;;;;;;;;;;;;;22.24;27.47;102102.56;4993102;28;19933;-68
2022/05/02 10:58:54;;;;;;;;;;;;;;;23.33;25.46;102106.34;4987862;28;19988;-68
2022/05/02 11:01:19;;;;;;;;;;;;;;;23.27;25.77;102090.97;4993014;28;19929;-70
2022/05/02 11:03:46;;;;;;;;;;;;;;;23.66;24.57;102080.16;4996330;28;19921;-69
2022/05/02 11:06:32;;;;;;;;;;;;;;;23.42;25.83;102087.38;4997054;28;20374;-69
2022/05/02 11:08:59;;;;;;;;;;;;;;;23.47;25.27;102079.94;4987163;28;20173;-68
2022/05/02 11:11:46;;;;;;;;;;;;;;;23.86;25.26;102080.00;4988021;28;19922;-66
2022/05/02 11:14:38;;;;;;;;;;;;;;;24.49;24.75;102080.97;4987619;28;19921;-68
2022/05/02 11:17:12;;;;;;;;;;;;;;;25.05;22.73;102087.63;5025923;28;19917;-68
2022/05/02 11:22:35;;;;;;;;;;;;;;;24.66;23.28;102086.06;5030577;28;19991;-68
2022/05/02 11:25:00;;;;;;;;;;;;;;;24.82;23.67;102071.91;5030389;28;19925;-68
2022/05/02 11:27:36;;;;;;;;;;;;;;;24.96;22.80;102074.78;5029846;28;20281;-68
2022/05/02 11:30:06;;;;;;;;;;;;;;;25.04;23.58;102077.69;5030178;28;19959;-68
2022/05/02 11:32:44;;;;;;;;;;;;;;;25.11;22.56;102071.88;5023863;28;19922;-67
2022/05/02 11:35:13;;;;;;;;;;;;;;;24.19;23.00;102078.47;5009651;28;19921;-67
2022/05/02 11:37:47;;;;;;;;;;;;;;;23.73;24.32;102069.66;5010188;28;19914;-67
2022/05/02 11:40:13;;;;;;;;;;;;;;;23.44;24.47;102064.06;4990766;28;19956;-67
2022/05/02 11:42:45;;;;;;;;;;;;;;;24.25;23.39;102072.63;4991155;28;20492;-68
2022/05/02 11:45:11;;;;;;;;;;;;;;;24.14;24.08;102065.59;4989127;28;19922;-68
2022/05/02 11:47:39;;;;;;;;;;;;;;;23.86;24.87;102062.75;4990054;28;19925;-68
2022/05/02 11:50:06;;;;;;;;;;;;;;;24.38;23.66;102062.94;4990532;28;20519;-68
2022/05/02 11:52:31;;;;;;;;;;;;;;;25.40;23.14;102066.31;5017183;28;19932;-69
2022/05/02 11:54:57;;;;;;;;;;;;;;;25.80;22.59;102065.78;5029841;28;19925;-68
2022/05/02 11:57:28;;;;;;;;;;;;;;;25.72;21.50;102058.19;5029945;28;19940;-68
2022/05/02 12:00:07;;;;;;;;;;;;;;;24.84;22.32;102061.44;5027748;28;19921;-67
2022/05/02 12:02:42;;;;;;;;;;;;;;;23.56;24.62;102063.72;4990224;28;20385;-68
2022/05/02 12:05:07;;;;;;;;;;;;;;;23.65;24.11;102061.19;4990165;28;19926;-69
2022/05/02 12:07:33;;;;;;;;;;;;;;;24.61;23.59;102053.91;4989871;28;19929;-69
2022/05/02 12:10:05;;;;;;;;;;;;;;;23.83;23.56;102057.81;4990110;28;19945;-69
2022/05/02 12:12:31;;;;;;;;;;;;;;;24.50;23.69;102057.88;4990202;28;20397;-69
2022/05/02 12:15:04;;;;;;;;;;;;;;;25.45;23.62;102050.56;4990996;28;20004;-68
2022/05/02 12:17:29;;;;;;;;;;;;;;;25.84;21.78;102042.03;4990669;28;19967;-68
2022/05/02 12:19:54;;;;;;;;;;;;;;;26.18;21.91;102048.13;5004428;28;20027;-69
2022/05/02 12:22:23;;;;;;;;;;;;;;;26.32;21.70;102034.44;4993062;28;20409;-69
2022/05/02 12:24:51;;;;;;;;;;;;;;;25.89;21.67;102042.78;4990604;28;19965;-70
2022/05/02 12:27:18;;;;;;;;;;;;;;;25.45;22.25;102050.56;4991304;28;19917;-71
2022/05/02 12:29:44;;;;;;;;;;;;;;;25.27;22.03;102040.31;5003598;28;19921;-68
2022/05/02 12:32:10;;;;;;;;;;;;;;;25.14;23.19;102041.81;4991923;28;19914;-68
2022/05/02 12:34:39;;;;;;;;;;;;;;;24.35;23.01;102045.06;4990576;28;19922;-69
2022/05/02 12:37:07;;;;;;;;;;;;;;;25.11;22.52;102039.69;4989965;28;20333;-69
2022/05/02 12:39:44;;;;;;;;;;;;;;;24.25;23.52;102033.38;4991482;28;20393;-70
2022/05/02 12:42:19;;;;;;;;;;;;;;;25.73;21.57;102026.78;4990254;28;19925;-68
2022/05/02 12:44:57;;;;;;;;;;;;;;;25.57;22.06;102034.41;4991464;28;20345;-69
2022/05/02 12:47:23;;;;;;;;;;;;;;;25.45;22.05;102028.56;5008946;28;19977;-67
2022/05/02 12:49:54;;;;;;;;;;;;;;;26.10;21.54;102027.59;5001112;28;20668;-69
2022/05/02 12:52:20;;;;;;;;;;;;;;;27.72;20.42;102025.28;5003139;28;19926;-69
2022/05/02 12:54:49;;;;;;;;;;;;;;;27.18;21.10;102019.84;4997393;28;19922;-69
2022/05/02 13:02:43;;;;;;;;;;;;;;;25.18;22.00;102020.03;4999428;28;19975;-69
2022/05/02 13:05:13;;;;;;;;;;;;;;;25.36;22.22;102026.69;5009678;28;19925;-69
2022/05/02 13:07:44;;;;;;;;;;;;;;;24.06;23.90;102021.41;5009359;28;19918;-69
2022/05/02 13:10:17;;;;;;;;;;;;;;;24.69;23.44;102023.06;4989486;28;19925;-69
2022/05/02 13:13:03;;;;;;;;;;;;;;;25.91;21.92;102018.50;4989303;28;19917;-67
2022/05/02 13:15:30;;;;;;;;;;;;;;;24.63;22.63;102013.22;4998432;28;19960;-69
2022/05/02 13:18:00;;;;;;;;;;;;;;;24.87;23.36;102016.84;5029037;28;19924;-69
2022/05/02 13:20:26;;;;;;;;;;;;;;;26.14;21.66;102002.22;5028359;28;19959;-68